Time;durP1;ratioP1;P1;durP2;ratioP2;P2;SDS_P1;SDS_P2;PMS_P1;PMS_P2;Temp;Humidity;BMP_temperature;BMP_pressure;BME280_temperature;BME280_humidity;BME280_pressure;Samples;Min_cycle;Max_cycle;Signal;HPM_P1;HPM_P2
2022/01/10 00:00:11;;;;;;;;;;;20.80;43.30;;;;;;6317644;28;19951;-43
2022/01/10 00:03:15;;;;;;;;;;;20.70;43.20;;;;;;6313129;28;19927;-44
2022/01/10 00:06:17;;;;;;;;;;;20.60;43.10;;;;;;6318404;28;19952;-42
2022/01/10 00:09:18;;;;;;;;;;;20.70;43.30;;;;;;6315830;28;19933;-43
2022/01/10 00:12:20;;;;;;;;;;;20.90;43.40;;;;;;6317954;28;20042;-43
2022/01/10 00:15:21;;;;;;;;;;;20.60;43.40;;;;;;6320410;28;19993;-43
2022/01/10 00:18:25;;;;;;;;;;;20.50;43.20;;;;;;6313750;28;19935;-47
2022/01/10 00:21:26;;;;;;;;;;;21.10;43.60;;;;;;6313335;28;20051;-43
2022/01/10 00:24:27;;;;;;;;;;;20.90;43.60;;;;;;6297449;28;19942;-44
2022/01/10 00:27:30;;;;;;;;;;;20.60;43.30;;;;;;6308916;28;20054;-42
2022/01/10 00:30:32;;;;;;;;;;;20.70;43.30;;;;;;6313018;28;19962;-49
2022/01/10 00:33:34;;;;;;;;;;;20.60;43.40;;;;;;6307572;28;20042;-46
2022/01/10 00:36:35;;;;;;;;;;;20.70;43.40;;;;;;6317843;28;20128;-44
2022/01/10 00:39:37;;;;;;;;;;;20.60;43.50;;;;;;6306413;28;19923;-46
2022/01/10 00:42:39;;;;;;;;;;;20.80;43.60;;;;;;6310445;28;21250;-41
2022/01/10 00:45:40;;;;;;;;;;;20.60;43.40;;;;;;6315159;28;20030;-45
2022/01/10 00:48:42;;;;;;;;;;;20.80;43.50;;;;;;6316602;28;19927;-45
2022/01/10 00:51:43;;;;;;;;;;;20.70;43.50;;;;;;6307408;28;20002;-44
2022/01/10 00:54:45;;;;;;;;;;;20.90;43.60;;;;;;6309911;28;19931;-44
2022/01/10 00:57:48;;;;;;;;;;;20.40;43.40;;;;;;6309788;28;19927;-42
2022/01/10 01:00:51;;;;;;;;;;;20.60;43.40;;;;;;6319976;28;19951;-41
2022/01/10 01:03:52;;;;;;;;;;;21.10;43.60;;;;;;6319062;28;20030;-46
2022/01/10 01:06:54;;;;;;;;;;;20.60;43.60;;;;;;6325075;28;20339;-42
2022/01/10 01:10:08;;;;;;;;;;;20.70;43.50;;;;;;6317670;28;20804;-44
2022/01/10 01:13:22;;;;;;;;;;;20.50;43.40;;;;;;6321933;28;19958;-43
2022/01/10 01:16:43;;;;;;;;;;;20.80;43.70;;;;;;6315099;28;19928;-43
2022/01/10 01:20:05;;;;;;;;;;;20.50;43.40;;;;;;6302971;28;20001;-46
2022/01/10 01:26:24;;;;;;;;;;;20.40;43.50;;;;;;6316692;28;19931;-42
2022/01/10 01:29:27;;;;;;;;;;;20.60;43.50;;;;;;6313594;28;19974;-46
2022/01/10 01:32:28;;;;;;;;;;;20.50;43.50;;;;;;6317857;28;19930;-43
2022/01/10 01:35:29;;;;;;;;;;;20.90;43.80;;;;;;6325316;28;19923;-42
2022/01/10 01:38:33;;;;;;;;;;;20.50;43.60;;;;;;6317047;28;19927;-42
2022/01/10 01:41:39;;;;;;;;;;;20.50;43.60;;;;;;6316119;28;19934;-44
2022/01/10 01:44:41;;;;;;;;;;;20.80;43.80;;;;;;6317415;28;21693;-44
2022/01/10 01:47:43;;;;;;;;;;;21.00;43.90;;;;;;6314596;28;19928;-45
2022/01/10 01:50:54;;;;;;;;;;;20.80;43.80;;;;;;6311535;28;19927;-43
2022/01/10 01:53:56;;;;;;;;;;;21.10;43.90;;;;;;6312709;28;20341;-42
2022/01/10 01:56:58;;;;;;;;;;;20.50;43.60;;;;;;6314297;28;19963;-42
2022/01/10 02:00:01;;;;;;;;;;;20.60;43.70;;;;;;6312511;28;19923;-40
2022/01/10 02:03:02;;;;;;;;;;;20.70;43.70;;;;;;6310367;28;20126;-40
2022/01/10 02:06:06;;;;;;;;;;;20.60;43.80;;;;;;6309693;28;19924;-42
2022/01/10 02:09:14;;;;;;;;;;;20.70;43.90;;;;;;6308670;28;20413;-41
2022/01/10 02:12:17;;;;;;;;;;;20.90;43.80;;;;;;6311172;28;19923;-40
2022/01/10 02:15:25;;;;;;;;;;;20.50;43.70;;;;;;6314394;28;20045;-43
2022/01/10 02:18:29;;;;;;;;;;;20.70;43.70;;;;;;6310417;28;19928;-40
2022/01/10 02:21:31;;;;;;;;;;;20.60;43.80;;;;;;6315787;28;19923;-41
2022/01/10 02:24:33;;;;;;;;;;;20.90;43.80;;;;;;6310558;28;19924;-41
2022/01/10 02:27:37;;;;;;;;;;;20.60;43.60;;;;;;6301966;28;20346;-40
2022/01/10 02:30:39;;;;;;;;;;;20.60;43.80;;;;;;6311104;28;19931;-41
2022/01/10 02:33:40;;;;;;;;;;;20.80;43.80;;;;;;6288658;28;20649;-41
2022/01/10 02:36:43;;;;;;;;;;;20.40;43.70;;;;;;6316979;28;19927;-44
2022/01/10 02:39:44;;;;;;;;;;;20.50;43.80;;;;;;6308993;28;20487;-41
2022/01/10 02:42:46;;;;;;;;;;;20.50;43.80;;;;;;6294640;28;19928;-42
2022/01/10 02:45:48;;;;;;;;;;;20.60;43.90;;;;;;6290290;28;20005;-41
2022/01/10 02:48:49;;;;;;;;;;;20.50;43.90;;;;;;6312391;28;20047;-42
2022/01/10 02:51:52;;;;;;;;;;;20.80;44.00;;;;;;6297752;28;19962;-41
2022/01/10 02:54:54;;;;;;;;;;;20.50;43.70;;;;;;6307329;28;19938;-41
2022/01/10 02:57:58;;;;;;;;;;;20.70;44.00;;;;;;6298640;28;19934;-42
2022/01/10 03:01:00;;;;;;;;;;;20.30;43.70;;;;;;6315839;28;19928;-42
2022/01/10 03:04:01;;;;;;;;;;;20.80;43.90;;;;;;6304038;28;20251;-41
2022/01/10 03:07:04;;;;;;;;;;;20.50;43.90;;;;;;6310315;28;20351;-41
2022/01/10 03:10:06;;;;;;;;;;;20.90;43.90;;;;;;6300934;28;19923;-42
2022/01/10 03:13:08;;;;;;;;;;;20.50;43.70;;;;;;6273542;28;20261;-41
2022/01/10 03:16:10;;;;;;;;;;;20.70;44.10;;;;;;6305852;28;20264;-41
2022/01/10 03:19:12;;;;;;;;;;;20.50;44.00;;;;;;6310449;28;20576;-40
2022/01/10 03:22:14;;;;;;;;;;;20.40;43.80;;;;;;6288418;28;19934;-42
2022/01/10 03:25:16;;;;;;;;;;;21.20;44.20;;;;;;6314559;28;20112;-41
2022/01/10 03:28:21;;;;;;;;;;;20.90;44.10;;;;;;6293916;28;19930;-43
2022/01/10 03:31:23;;;;;;;;;;;20.50;43.80;;;;;;6311212;28;19928;-44
2022/01/10 03:34:27;;;;;;;;;;;20.40;43.90;;;;;;6316564;28;19926;-43
2022/01/10 03:37:29;;;;;;;;;;;20.70;44.10;;;;;;6305984;28;19923;-46
2022/01/10 03:40:31;;;;;;;;;;;21.00;44.10;;;;;;6321518;28;19934;-41
2022/01/10 03:43:36;;;;;;;;;;;20.40;43.90;;;;;;6307888;28;20050;-41
2022/01/10 03:46:38;;;;;;;;;;;20.70;44.10;;;;;;6307110;28;19924;-41
2022/01/10 03:49:39;;;;;;;;;;;20.80;44.00;;;;;;6299530;28;19928;-43
2022/01/10 03:52:42;;;;;;;;;;;20.90;44.20;;;;;;6308824;28;19990;-42
2022/01/10 03:55:44;;;;;;;;;;;20.80;44.00;;;;;;6310692;28;20777;-42
2022/01/10 03:58:46;;;;;;;;;;;20.80;44.20;;;;;;6310935;28;19930;-42
2022/01/10 04:01:50;;;;;;;;;;;20.40;43.90;;;;;;6289810;28;20219;-41
2022/01/10 04:04:52;;;;;;;;;;;20.60;44.10;;;;;;6313591;28;20327;-42
2022/01/10 04:07:54;;;;;;;;;;;20.90;44.00;;;;;;6291397;28;19927;-41
2022/01/10 04:10:56;;;;;;;;;;;20.50;44.10;;;;;;6304228;28;19931;-43
2022/01/10 04:13:58;;;;;;;;;;;20.70;44.20;;;;;;6312036;28;19927;-41
2022/01/10 04:17:00;;;;;;;;;;;20.70;44.10;;;;;;6322042;28;19924;-44
2022/01/10 04:20:02;;;;;;;;;;;20.60;44.10;;;;;;6315881;28;19924;-42
2022/01/10 04:23:04;;;;;;;;;;;20.50;44.00;;;;;;6305755;28;20016;-43
2022/01/10 04:26:06;;;;;;;;;;;20.90;44.20;;;;;;6328222;28;20785;-42
2022/01/10 04:29:11;;;;;;;;;;;20.60;44.20;;;;;;6324172;28;19924;-44
2022/01/10 04:32:12;;;;;;;;;;;20.50;44.20;;;;;;6315316;28;19928;-46
2022/01/10 04:35:17;;;;;;;;;;;20.70;44.30;;;;;;6322529;28;19978;-45
2022/01/10 04:38:20;;;;;;;;;;;20.40;44.20;;;;;;6322489;28;19929;-49
2022/01/10 04:41:21;;;;;;;;;;;20.50;44.30;;;;;;6313007;28;19969;-43
2022/01/10 04:44:23;;;;;;;;;;;20.40;44.20;;;;;;6314281;28;19948;-46
2022/01/10 04:47:25;;;;;;;;;;;20.60;44.30;;;;;;6323719;28;19980;-43
2022/01/10 04:53:48;;;;;;;;;;;20.40;44.10;;;;;;6310047;28;20006;-42
2022/01/10 04:56:50;;;;;;;;;;;20.90;44.40;;;;;;6311184;28;20746;-42
2022/01/10 04:59:55;;;;;;;;;;;20.30;44.20;;;;;;6310621;28;20038;-42
2022/01/10 05:02:56;;;;;;;;;;;20.50;44.20;;;;;;6300138;28;19970;-45
2022/01/10 05:05:58;;;;;;;;;;;20.80;44.50;;;;;;6306261;28;19924;-43
2022/01/10 05:09:01;;;;;;;;;;;20.40;44.20;;;;;;6314689;28;19923;-41
2022/01/10 05:12:14;;;;;;;;;;;20.50;44.30;;;;;;6292731;28;20691;-43
2022/01/10 05:15:15;;;;;;;;;;;20.50;44.30;;;;;;6307966;28;19938;-42
2022/01/10 05:18:17;;;;;;;;;;;20.70;44.50;;;;;;6304335;28;19927;-44
2022/01/10 05:21:20;;;;;;;;;;;20.70;44.50;;;;;;6305232;28;19927;-43
2022/01/10 05:24:22;;;;;;;;;;;20.40;44.30;;;;;;6307311;28;19924;-42
2022/01/10 05:27:24;;;;;;;;;;;21.00;44.60;;;;;;6309805;28;19927;-43
2022/01/10 05:30:29;;;;;;;;;;;20.80;44.20;;;;;;6313498;28;19927;-43
2022/01/10 05:33:31;;;;;;;;;;;20.30;44.20;;;;;;6317154;28;19930;-43
2022/01/10 05:36:33;;;;;;;;;;;20.50;44.50;;;;;;6297012;28;19976;-43
2022/01/10 05:39:35;;;;;;;;;;;20.80;44.60;;;;;;6312734;28;20026;-43
2022/01/10 05:42:36;;;;;;;;;;;20.80;44.50;;;;;;6303382;28;19974;-42
2022/01/10 05:45:37;;;;;;;;;;;20.30;44.30;;;;;;6298462;28;20146;-42
2022/01/10 05:48:46;;;;;;;;;;;20.70;44.60;;;;;;6303205;28;19924;-43
2022/01/10 05:51:48;;;;;;;;;;;20.40;44.40;;;;;;6287797;28;19927;-43
2022/01/10 05:55:08;;;;;;;;;;;20.20;44.20;;;;;;6294787;28;20053;-41
2022/01/10 05:58:13;;;;;;;;;;;20.70;44.40;;;;;;6303419;28;19923;-43
2022/01/10 06:01:16;;;;;;;;;;;20.30;44.40;;;;;;6304232;28;19928;-45
2022/01/10 06:04:24;;;;;;;;;;;20.40;44.40;;;;;;6300106;28;19935;-45
2022/01/10 06:07:26;;;;;;;;;;;20.60;44.60;;;;;;6299627;28;19962;-43
2022/01/10 06:10:29;;;;;;;;;;;20.40;44.50;;;;;;6304498;28;20586;-47
2022/01/10 06:13:36;;;;;;;;;;;20.70;44.60;;;;;;6305982;28;20003;-47
2022/01/10 06:16:38;;;;;;;;;;;20.30;44.50;;;;;;6298134;28;19939;-44
2022/01/10 06:19:39;;;;;;;;;;;20.50;44.60;;;;;;6294455;28;20050;-43
2022/01/10 06:22:41;;;;;;;;;;;20.40;44.50;;;;;;6297902;28;19928;-43
2022/01/10 06:25:46;;;;;;;;;;;20.40;44.50;;;;;;6296083;28;20026;-45
2022/01/10 06:28:47;;;;;;;;;;;20.30;44.40;;;;;;6269090;28;20765;-44
2022/01/10 06:31:49;;;;;;;;;;;20.40;44.50;;;;;;6286243;28;20042;-44
2022/01/10 06:34:52;;;;;;;;;;;20.40;44.50;;;;;;6286330;28;19924;-43
2022/01/10 06:37:55;;;;;;;;;;;20.40;44.50;;;;;;6287855;28;19928;-44
2022/01/10 06:40:58;;;;;;;;;;;20.50;44.70;;;;;;6285015;28;19928;-45
2022/01/10 06:43:59;;;;;;;;;;;20.40;44.50;;;;;;6293099;28;20005;-42
2022/01/10 06:47:01;;;;;;;;;;;20.50;44.50;;;;;;6287873;28;19931;-45
2022/01/10 06:50:03;;;;;;;;;;;20.60;44.50;;;;;;6295799;28;20032;-47
2022/01/10 06:53:07;;;;;;;;;;;20.40;44.30;;;;;;6301954;28;19924;-43
2022/01/10 06:56:13;;;;;;;;;;;20.60;44.30;;;;;;6291980;28;20042;-46
2022/01/10 06:59:16;;;;;;;;;;;20.80;44.30;;;;;;6285058;28;19970;-45
2022/01/10 07:02:20;;;;;;;;;;;20.60;44.20;;;;;;6275199;28;21025;-43
2022/01/10 07:05:24;;;;;;;;;;;20.90;44.30;;;;;;6274452;28;19928;-44
2022/01/10 07:08:30;;;;;;;;;;;20.80;44.20;;;;;;6270665;28;19928;-45
2022/01/10 07:11:35;;;;;;;;;;;21.20;44.30;;;;;;6263386;28;20043;-44
2022/01/10 07:14:37;;;;;;;;;;;20.60;44.00;;;;;;6261727;28;20058;-47
2022/01/10 07:17:42;;;;;;;;;;;20.80;44.10;;;;;;6247868;28;21791;-44
2022/01/10 07:20:46;;;;;;;;;;;20.80;44.10;;;;;;6265586;28;20744;-44
2022/01/10 07:23:48;;;;;;;;;;;20.80;44.00;;;;;;6253304;28;20910;-46
2022/01/10 07:26:50;;;;;;;;;;;20.80;43.70;;;;;;6263252;28;19934;-46
2022/01/10 07:29:51;;;;;;;;;;;21.30;44.10;;;;;;6258763;28;20030;-43
2022/01/10 07:32:53;;;;;;;;;;;21.30;44.10;;;;;;6260958;28;19919;-46
2022/01/10 07:35:55;;;;;;;;;;;20.70;43.70;;;;;;6257616;28;19919;-46
2022/01/10 07:38:56;;;;;;;;;;;21.20;43.90;;;;;;6249628;28;20103;-44
2022/01/10 07:41:58;;;;;;;;;;;20.90;44.00;;;;;;6262898;28;19928;-44
2022/01/10 07:45:10;;;;;;;;;;;21.00;43.70;;;;;;6252242;28;19935;-45
2022/01/10 07:48:11;;;;;;;;;;;20.90;43.60;;;;;;6222189;28;19927;-44
2022/01/10 07:51:13;;;;;;;;;;;21.30;43.90;;;;;;6234518;28;20165;-44
2022/01/10 07:54:14;;;;;;;;;;;21.10;43.70;;;;;;6230170;28;19927;-45
2022/01/10 07:57:16;;;;;;;;;;;20.70;43.60;;;;;;6201018;28;19927;-44
2022/01/10 08:00:17;;;;;;;;;;;21.00;43.60;;;;;;6214677;28;19927;-48
2022/01/10 08:03:19;;;;;;;;;;;21.20;43.80;;;;;;6213121;28;19935;-45
2022/01/10 08:06:22;;;;;;;;;;;21.00;43.50;;;;;;6211436;28;19927;-46
2022/01/10 08:09:24;;;;;;;;;;;21.40;43.70;;;;;;6208984;28;20055;-51
2022/01/10 08:12:26;;;;;;;;;;;21.80;43.90;;;;;;6174429;28;21165;-47
2022/01/10 08:15:27;;;;;;;;;;;21.20;43.60;;;;;;6181330;28;19940;-43
2022/01/10 08:18:30;;;;;;;;;;;21.40;43.50;;;;;;6189251;28;19935;-45
2022/01/10 08:21:31;;;;;;;;;;;21.20;43.50;;;;;;6190610;28;19932;-46
2022/01/10 08:24:33;;;;;;;;;;;20.90;43.30;;;;;;6187725;28;19995;-47
2022/01/10 08:27:36;;;;;;;;;;;21.10;43.30;;;;;;6181696;28;21216;-45
2022/01/10 08:30:37;;;;;;;;;;;21.70;43.60;;;;;;6184952;28;19935;-43
2022/01/10 08:33:39;;;;;;;;;;;21.60;43.60;;;;;;6180703;28;19935;-46
2022/01/10 08:36:40;;;;;;;;;;;21.20;43.40;;;;;;6175263;28;19985;-42
2022/01/10 08:39:42;;;;;;;;;;;21.60;43.60;;;;;;6158029;28;19928;-43
2022/01/10 08:42:51;;;;;;;;;;;21.50;43.60;;;;;;6144653;28;19934;-43
2022/01/10 08:45:52;;;;;;;;;;;21.50;43.50;;;;;;6183053;28;19998;-45
2022/01/10 08:48:53;;;;;;;;;;;21.90;43.70;;;;;;6165650;28;19928;-42
2022/01/10 08:51:57;;;;;;;;;;;21.80;43.70;;;;;;6178771;28;19928;-48
2022/01/10 08:54:58;;;;;;;;;;;21.40;43.40;;;;;;6186054;28;20057;-43
2022/01/10 08:58:01;;;;;;;;;;;21.50;43.50;;;;;;6183163;28;19928;-43
2022/01/10 09:01:04;;;;;;;;;;;21.80;43.60;;;;;;6157734;28;20006;-44
2022/01/10 09:04:05;;;;;;;;;;;21.20;43.20;;;;;;6165717;28;20429;-42
2022/01/10 09:07:10;;;;;;;;;;;21.70;43.50;;;;;;6169431;28;19955;-42
2022/01/10 09:10:12;;;;;;;;;;;21.20;43.20;;;;;;6113078;28;19929;-43
2022/01/10 09:13:14;;;;;;;;;;;21.90;43.60;;;;;;6126623;28;21591;-45
2022/01/10 09:16:16;;;;;;;;;;;21.80;43.50;;;;;;6131890;28;19929;-43
2022/01/10 09:19:18;;;;;;;;;;;21.50;43.40;;;;;;6129671;28;19943;-43
2022/01/10 09:22:19;;;;;;;;;;;21.90;43.60;;;;;;6124360;28;20006;-44
2022/01/10 09:25:20;;;;;;;;;;;21.40;43.30;;;;;;6128838;28;20002;-43
2022/01/10 09:28:22;;;;;;;;;;;21.70;43.60;;;;;;6128845;28;19935;-43
2022/01/10 09:31:24;;;;;;;;;;;21.70;43.40;;;;;;6126357;28;19929;-48
2022/01/10 09:34:25;;;;;;;;;;;21.50;43.30;;;;;;6125937;28;19928;-43
2022/01/10 09:37:28;;;;;;;;;;;21.80;43.40;;;;;;6126134;28;20144;-43
2022/01/10 09:40:34;;;;;;;;;;;22.00;43.50;;;;;;6144662;28;20021;-43
2022/01/10 09:43:36;;;;;;;;;;;22.00;43.60;;;;;;6183408;28;19927;-45
2022/01/10 09:46:38;;;;;;;;;;;21.60;43.30;;;;;;6191009;28;19975;-46
2022/01/10 09:49:40;;;;;;;;;;;21.40;43.20;;;;;;6178477;28;19935;-42
2022/01/10 09:52:44;;;;;;;;;;;22.00;43.50;;;;;;6158122;28;19983;-42
2022/01/10 09:55:46;;;;;;;;;;;22.10;43.70;;;;;;6167998;28;19935;-44
2022/01/10 09:58:50;;;;;;;;;;;21.80;43.40;;;;;;6177239;28;21147;-42
2022/01/10 10:01:52;;;;;;;;;;;21.60;43.20;;;;;;6170198;28;19949;-42
2022/01/10 10:04:53;;;;;;;;;;;22.00;43.60;;;;;;6157324;28;21800;-42
2022/01/10 10:07:55;;;;;;;;;;;22.00;43.40;;;;;;6180802;28;19956;-42
2022/01/10 10:10:56;;;;;;;;;;;21.90;43.50;;;;;;6168605;28;19933;-43
2022/01/10 10:13:59;;;;;;;;;;;21.70;43.20;;;;;;6166378;28;19934;-42
2022/01/10 10:17:08;;;;;;;;;;;21.90;43.30;;;;;;6193618;28;21037;-43
2022/01/10 10:20:10;;;;;;;;;;;21.90;43.30;;;;;;6178295;28;19934;-45
2022/01/10 10:23:34;;;;;;;;;;;21.90;43.20;;;;;;6173950;28;19934;-45
2022/01/10 10:26:37;;;;;;;;;;;21.60;42.90;;;;;;6193401;28;19972;-47
2022/01/10 10:29:41;;;;;;;;;;;21.90;43.10;;;;;;6181204;28;19963;-45
2022/01/10 10:32:42;;;;;;;;;;;22.10;43.20;;;;;;6192087;28;19929;-45
2022/01/10 10:35:48;;;;;;;;;;;21.80;43.00;;;;;;6177649;28;19927;-47
2022/01/10 10:38:49;;;;;;;;;;;22.20;43.20;;;;;;6195155;28;19927;-44
2022/01/10 10:41:53;;;;;;;;;;;21.80;43.10;;;;;;6180723;28;19932;-44
2022/01/10 10:44:56;;;;;;;;;;;22.00;43.10;;;;;;6188887;28;19997;-46
2022/01/10 10:47:59;;;;;;;;;;;21.90;43.00;;;;;;6177848;28;19927;-45
2022/01/10 10:51:01;;;;;;;;;;;22.20;43.10;;;;;;6203364;28;19934;-45
2022/01/10 10:54:03;;;;;;;;;;;22.40;43.10;;;;;;6184400;28;20036;-45
2022/01/10 10:57:07;;;;;;;;;;;22.30;43.20;;;;;;6183840;28;22041;-46
2022/01/10 11:00:12;;;;;;;;;;;22.30;43.00;;;;;;6191258;28;19965;-43
2022/01/10 11:03:15;;;;;;;;;;;22.10;42.90;;;;;;6154624;28;19970;-46
2022/01/10 11:06:17;;;;;;;;;;;22.40;43.10;;;;;;6177492;28;19935;-48
2022/01/10 11:09:19;;;;;;;;;;;22.30;43.10;;;;;;6200172;28;22035;-48
2022/01/10 11:12:21;;;;;;;;;;;22.30;43.00;;;;;;6184531;28;19927;-49
2022/01/10 11:15:23;;;;;;;;;;;22.40;43.10;;;;;;6165940;28;19935;-47
2022/01/10 11:18:25;;;;;;;;;;;22.40;43.20;;;;;;6155070;28;19934;-45
2022/01/10 11:21:27;;;;;;;;;;;22.10;42.90;;;;;;6193203;28;20101;-44
2022/01/10 11:24:41;;;;;;;;;;;22.30;43.00;;;;;;6189006;28;20082;-44
2022/01/10 11:27:44;;;;;;;;;;;22.40;43.10;;;;;;6215231;28;19981;-47
2022/01/10 11:30:46;;;;;;;;;;;22.30;43.10;;;;;;6210931;28;20150;-44
2022/01/10 11:33:48;;;;;;;;;;;22.10;43.00;;;;;;6198151;28;19928;-44
2022/01/10 11:36:50;;;;;;;;;;;22.30;43.00;;;;;;6228575;28;22728;-49
2022/01/10 11:39:52;;;;;;;;;;;22.10;43.00;;;;;;6223873;28;19928;-45
2022/01/10 11:42:55;;;;;;;;;;;22.40;43.20;;;;;;6230175;28;19928;-48
2022/01/10 11:46:11;;;;;;;;;;;22.40;43.10;;;;;;6223317;28;20008;-44
2022/01/10 11:49:17;;;;;;;;;;;22.50;43.10;;;;;;6207412;28;19934;-45
2022/01/10 11:52:18;;;;;;;;;;;22.20;42.90;;;;;;6225075;28;19928;-49
2022/01/10 11:55:29;;;;;;;;;;;22.30;43.00;;;;;;6232140;28;19960;-46
2022/01/10 11:58:30;;;;;;;;;;;22.20;42.90;;;;;;6223306;28;20111;-45
2022/01/10 12:01:33;;;;;;;;;;;22.40;43.20;;;;;;6189039;28;19928;-43
2022/01/10 12:04:36;;;;;;;;;;;23.00;43.30;;;;;;6216545;28;20896;-44
2022/01/10 12:07:38;;;;;;;;;;;22.70;43.20;;;;;;6221196;28;19928;-43
2022/01/10 12:11:00;;;;;;;;;;;22.50;43.10;;;;;;6211938;28;19935;-47
2022/01/10 12:14:01;;;;;;;;;;;22.80;43.20;;;;;;6223013;28;19971;-45
2022/01/10 12:17:02;;;;;;;;;;;22.30;43.00;;;;;;6221148;28;19928;-48
2022/01/10 12:20:08;;;;;;;;;;;22.50;43.10;;;;;;6211307;28;19928;-47
2022/01/10 12:23:11;;;;;;;;;;;22.30;43.00;;;;;;6210584;28;19931;-46
2022/01/10 12:26:13;;;;;;;;;;;22.60;43.10;;;;;;6209053;28;19954;-51
2022/01/10 12:29:15;;;;;;;;;;;22.60;43.10;;;;;;6201820;28;20048;-45
2022/01/10 12:32:17;;;;;;;;;;;22.60;43.20;;;;;;6172663;28;19927;-44
2022/01/10 12:35:20;;;;;;;;;;;22.30;43.00;;;;;;6199099;28;20485;-43
2022/01/10 12:38:21;;;;;;;;;;;22.90;43.20;;;;;;6210209;28;19928;-46
2022/01/10 12:41:23;;;;;;;;;;;22.60;43.10;;;;;;6199405;28;20068;-47
2022/01/10 12:44:24;;;;;;;;;;;22.50;43.10;;;;;;6209726;28;19928;-45
2022/01/10 12:47:26;;;;;;;;;;;22.40;43.10;;;;;;6176598;28;19935;-46
2022/01/10 12:50:31;;;;;;;;;;;22.40;43.00;;;;;;6203447;28;19935;-49
2022/01/10 12:53:32;;;;;;;;;;;22.60;43.00;;;;;;6174108;28;19928;-48
2022/01/10 12:56:34;;;;;;;;;;;22.70;43.10;;;;;;6166595;28;20062;-48
2022/01/10 12:59:37;;;;;;;;;;;22.80;43.20;;;;;;6176551;28;19928;-42
2022/01/10 13:02:39;;;;;;;;;;;22.60;43.10;;;;;;6154739;28;19928;-45
2022/01/10 13:05:44;;;;;;;;;;;22.80;43.20;;;;;;6132167;28;19928;-49
2022/01/10 13:08:47;;;;;;;;;;;22.70;43.10;;;;;;6143544;28;20028;-46
2022/01/10 13:12:01;;;;;;;;;;;22.80;43.10;;;;;;6146198;28;19935;-44
2022/01/10 13:15:05;;;;;;;;;;;22.40;42.80;;;;;;6131188;28;21447;-45
2022/01/10 13:18:08;;;;;;;;;;;22.80;43.00;;;;;;6149905;28;19928;-46
2022/01/10 13:21:10;;;;;;;;;;;23.10;43.10;;;;;;6154394;28;19928;-46
2022/01/10 13:24:14;;;;;;;;;;;22.80;43.00;;;;;;6155017;28;20946;-47
2022/01/10 13:27:21;;;;;;;;;;;22.90;43.00;;;;;;6165388;28;20016;-45
2022/01/10 13:30:25;;;;;;;;;;;22.50;42.80;;;;;;6133063;28;19927;-43
2022/01/10 13:33:37;;;;;;;;;;;22.80;43.00;;;;;;6122817;28;21407;-42
2022/01/10 13:36:42;;;;;;;;;;;22.90;43.00;;;;;;6175347;28;21591;-41
2022/01/10 13:39:57;;;;;;;;;;;22.90;43.00;;;;;;6176103;28;21327;-41
2022/01/10 13:43:04;;;;;;;;;;;23.00;43.10;;;;;;6185650;28;19933;-41
2022/01/10 13:46:07;;;;;;;;;;;21.50;42.30;;;;;;6140389;28;20966;-41
2022/01/10 13:49:08;;;;;;;;;;;22.60;42.90;;;;;;6162730;28;20006;-41
2022/01/10 13:52:12;;;;;;;;;;;22.70;43.00;;;;;;6178584;28;19938;-42
2022/01/10 13:55:14;;;;;;;;;;;22.80;43.00;;;;;;6182356;28;19927;-43
2022/01/10 13:58:24;;;;;;;;;;;23.00;43.20;;;;;;6173210;28;19931;-45
2022/01/10 14:01:28;;;;;;;;;;;22.40;42.80;;;;;;6150935;28;19928;-42
2022/01/10 14:04:32;;;;;;;;;;;22.90;43.10;;;;;;6159549;28;21334;-41
2022/01/10 14:07:34;;;;;;;;;;;22.70;43.00;;;;;;6172174;28;19928;-41
2022/01/10 14:10:35;;;;;;;;;;;22.40;42.90;;;;;;6165849;28;20055;-41
2022/01/10 14:13:37;;;;;;;;;;;22.90;43.20;;;;;;6179824;28;21242;-41
2022/01/10 14:16:41;;;;;;;;;;;23.00;43.20;;;;;;6170054;28;21419;-41
2022/01/10 14:19:44;;;;;;;;;;;23.00;43.10;;;;;;6174867;28;20046;-41
2022/01/10 14:22:47;;;;;;;;;;;22.80;43.10;;;;;;6157540;28;19927;-41
2022/01/10 14:25:48;;;;;;;;;;;23.00;43.20;;;;;;6159325;28;19931;-41
2022/01/10 14:28:51;;;;;;;;;;;22.80;43.10;;;;;;6164895;28;20594;-41
2022/01/10 14:31:52;;;;;;;;;;;22.70;43.00;;;;;;6154016;28;20062;-41
2022/01/10 14:34:54;;;;;;;;;;;23.10;43.20;;;;;;6159821;28;21242;-41
2022/01/10 14:37:56;;;;;;;;;;;22.80;43.10;;;;;;6142292;28;19935;-41
2022/01/10 14:40:58;;;;;;;;;;;23.10;43.30;;;;;;6165115;28;19935;-42
2022/01/10 14:44:00;;;;;;;;;;;23.10;43.20;;;;;;6151163;28;19934;-40
2022/01/10 14:47:01;;;;;;;;;;;23.00;43.30;;;;;;6149183;27;19928;-41
2022/01/10 14:50:03;;;;;;;;;;;22.70;43.20;;;;;;6164939;28;19928;-41
2022/01/10 14:53:06;;;;;;;;;;;23.00;43.30;;;;;;6143240;28;20310;-41
2022/01/10 14:56:09;;;;;;;;;;;22.80;43.20;;;;;;6166896;28;19927;-41
2022/01/10 14:59:11;;;;;;;;;;;23.20;43.40;;;;;;6165757;28;20022;-40
2022/01/10 15:02:12;;;;;;;;;;;23.00;43.30;;;;;;6142869;28;20009;-40
2022/01/10 15:05:14;;;;;;;;;;;23.10;43.30;;;;;;6143230;28;19967;-43
2022/01/10 15:08:16;;;;;;;;;;;22.70;43.10;;;;;;6118805;28;19980;-42
2022/01/10 15:11:18;;;;;;;;;;;22.90;43.20;;;;;;6148492;28;19927;-41
2022/01/10 15:14:19;;;;;;;;;;;22.90;43.80;;;;;;6159592;28;19932;-42
2022/01/10 15:17:21;;;;;;;;;;;22.80;43.20;;;;;;6151701;28;19934;-42
2022/01/10 15:20:22;;;;;;;;;;;23.00;43.30;;;;;;6153144;28;19935;-42
2022/01/10 15:23:25;;;;;;;;;;;22.90;43.30;;;;;;6152214;28;20058;-42
2022/01/10 15:26:51;;;;;;;;;;;23.60;43.60;;;;;;6154787;28;19927;-42
2022/01/10 15:29:52;;;;;;;;;;;22.90;43.30;;;;;;6168117;28;20050;-42
2022/01/10 15:32:54;;;;;;;;;;;22.60;43.10;;;;;;6151636;28;20825;-41
2022/01/10 15:35:56;;;;;;;;;;;23.20;44.10;;;;;;6157164;28;19928;-41
2022/01/10 15:39:01;;;;;;;;;;;22.60;43.20;;;;;;6141938;28;19928;-41
2022/01/10 15:42:03;;;;;;;;;;;23.10;43.40;;;;;;6109909;28;20850;-41
2022/01/10 15:45:06;;;;;;;;;;;23.10;43.50;;;;;;6157862;28;19934;-41
2022/01/10 15:48:07;;;;;;;;;;;22.80;43.30;;;;;;6147936;28;19934;-46
2022/01/10 15:51:08;;;;;;;;;;;22.70;43.20;;;;;;6146946;28;19928;-45
2022/01/10 15:54:11;;;;;;;;;;;22.90;43.40;;;;;;6153703;28;19974;-47
2022/01/10 15:57:12;;;;;;;;;;;22.60;43.20;;;;;;6157757;28;20102;-43
2022/01/10 16:00:14;;;;;;;;;;;22.90;43.40;;;;;;6158651;28;19966;-42
2022/01/10 16:03:16;;;;;;;;;;;22.90;43.30;;;;;;6165591;28;20829;-42
2022/01/10 16:06:17;;;;;;;;;;;22.90;43.40;;;;;;6161912;28;19928;-42
2022/01/10 16:09:19;;;;;;;;;;;23.00;43.40;;;;;;6142941;28;19928;-42
2022/01/10 16:12:21;;;;;;;;;;;23.10;43.50;;;;;;6174469;28;19935;-41
2022/01/10 16:15:23;;;;;;;;;;;22.70;43.40;;;;;;6165087;28;19934;-42
2022/01/10 16:18:25;;;;;;;;;;;22.90;43.40;;;;;;6175241;28;19935;-41
2022/01/10 16:21:26;;;;;;;;;;;22.50;43.20;;;;;;6176877;28;19935;-42
2022/01/10 16:24:29;;;;;;;;;;;23.00;43.50;;;;;;6184831;28;19997;-42
2022/01/10 16:27:30;;;;;;;;;;;23.00;43.40;;;;;;6182886;28;19928;-42
2022/01/10 16:30:31;;;;;;;;;;;23.00;43.50;;;;;;6176265;28;20129;-41
2022/01/10 16:33:35;;;;;;;;;;;23.00;43.50;;;;;;6197740;28;19931;-44
2022/01/10 16:36:36;;;;;;;;;;;23.00;43.50;;;;;;6181374;28;19977;-51
2022/01/10 16:39:38;;;;;;;;;;;22.60;43.30;;;;;;6204188;28;19934;-45
2022/01/10 16:42:40;;;;;;;;;;;23.00;43.60;;;;;;6197077;28;19927;-47
2022/01/10 16:45:42;;;;;;;;;;;22.80;43.60;;;;;;6203344;28;19967;-46
2022/01/10 16:48:44;;;;;;;;;;;23.00;43.70;;;;;;6202353;28;21283;-50
2022/01/10 16:51:45;;;;;;;;;;;23.20;43.80;;;;;;6195170;28;20137;-48
2022/01/10 16:54:49;;;;;;;;;;;22.90;43.70;;;;;;6202928;28;20058;-46
2022/01/10 16:57:51;;;;;;;;;;;22.80;43.60;;;;;;6192871;28;19927;-46
2022/01/10 17:00:52;;;;;;;;;;;22.60;43.50;;;;;;6194808;28;21202;-46
2022/01/10 17:03:54;;;;;;;;;;;22.50;43.40;;;;;;6213601;28;19936;-48
2022/01/10 17:06:55;;;;;;;;;;;23.00;43.70;;;;;;6198903;28;19935;-47
2022/01/10 17:09:57;;;;;;;;;;;22.50;43.40;;;;;;6201693;28;20062;-44
2022/01/10 17:13:14;;;;;;;;;;;22.80;43.60;;;;;;6212866;28;20085;-47
2022/01/10 17:16:17;;;;;;;;;;;23.30;44.10;;;;;;6229205;28;19928;-59
2022/01/10 17:19:19;;;;;;;;;;;23.00;43.80;;;;;;6234023;28;19927;-62
2022/01/10 17:22:22;;;;;;;;;;;23.00;43.70;;;;;;6237059;28;20934;-56
2022/01/10 17:25:25;;;;;;;;;;;23.20;43.80;;;;;;6235101;28;19993;-58
2022/01/10 17:28:26;;;;;;;;;;;22.40;43.40;;;;;;6238361;28;19934;-61
2022/01/10 17:31:28;;;;;;;;;;;23.10;43.90;;;;;;6228201;28;19928;-58
2022/01/10 17:34:29;;;;;;;;;;;22.90;43.70;;;;;;6221900;28;19928;-57
2022/01/10 17:37:31;;;;;;;;;;;23.10;43.70;;;;;;6244859;28;19934;-57
2022/01/10 17:40:33;;;;;;;;;;;22.80;43.50;;;;;;6239629;28;19928;-50
2022/01/10 17:43:34;;;;;;;;;;;23.20;43.60;;;;;;6220457;28;20046;-44
2022/01/10 17:46:36;;;;;;;;;;;23.10;43.60;;;;;;6250237;28;20043;-43
2022/01/10 17:49:40;;;;;;;;;;;23.00;43.40;;;;;;6238990;28;20009;-48